sensor_id;sensor_type;location;lat;lon;timestamp;pressure;altitude;pressure_sealevel;temperature;humidity
24762;BME280;12865;51.934;10.330;2023-02-28T00:00:04;100566.63;;;-0.51;100.00
24762;BME280;12865;51.934;10.330;2023-02-28T00:02:56;100564.22;;;-0.60;100.00
24762;BME280;12865;51.934;10.330;2023-02-28T00:05:42;100561.63;;;-0.62;100.00
24762;BME280;12865;51.934;10.330;2023-02-28T00:08:28;100566.06;;;-0.64;100.00
24762;BME280;12865;51.934;10.330;2023-02-28T00:11:15;100568.72;;;-0.67;100.00
24762;BME280;12865;51.934;10.330;2023-02-28T00:14:01;100568.03;;;-0.75;100.00
24762;BME280;12865;51.934;10.330;2023-02-28T00:16:47;100561.22;;;-0.82;100.00
24762;BME280;12865;51.934;10.330;2023-02-28T00:19:32;100559.63;;;-0.88;100.00
24762;BME280;12865;51.934;10.330;2023-02-28T00:22:19;100560.63;;;-0.93;100.00
24762;BME280;12865;51.934;10.330;2023-02-28T00:25:07;100560.78;;;-0.99;100.00
24762;BME280;12865;51.934;10.330;2023-02-28T00:27:52;100566.06;;;-1.02;100.00
24762;BME280;12865;51.934;10.330;2023-02-28T00:30:38;100573.00;;;-1.00;100.00
24762;BME280;12865;51.934;10.330;2023-02-28T00:33:24;100568.72;;;-1.04;100.00
24762;BME280;12865;51.934;10.330;2023-02-28T00:36:11;100568.78;;;-1.07;100.00
24762;BME280;12865;51.934;10.330;2023-02-28T00:38:56;100565.28;;;-1.06;100.00
24762;BME280;12865;51.934;10.330;2023-02-28T00:41:42;100560.25;;;-1.15;100.00
24762;BME280;12865;51.934;10.330;2023-02-28T00:44:28;100566.25;;;-1.11;100.00
24762;BME280;12865;51.934;10.330;2023-02-28T00:47:14;100566.34;;;-1.14;100.00
24762;BME280;12865;51.934;10.330;2023-02-28T00:50:00;100563.72;;;-1.13;100.00
24762;BME280;12865;51.934;10.330;2023-02-28T00:52:46;100563.72;;;-1.13;100.00
24762;BME280;12865;51.934;10.330;2023-02-28T00:55:32;100568.00;;;-1.10;100.00
24762;BME280;12865;51.934;10.330;2023-02-28T00:58:18;100567.09;;;-1.09;100.00
24762;BME280;12865;51.934;10.330;2023-02-28T01:01:04;100566.22;;;-1.10;100.00
24762;BME280;12865;51.934;10.330;2023-02-28T01:03:49;100564.47;;;-1.08;100.00
24762;BME280;12865;51.934;10.330;2023-02-28T01:06:35;100565.22;;;-1.03;100.00
24762;BME280;12865;51.934;10.330;2023-02-28T01:09:21;100559.97;;;-1.03;100.00
24762;BME280;12865;51.934;10.330;2023-02-28T01:12:08;100566.94;;;-1.02;100.00
24762;BME280;12865;51.934;10.330;2023-02-28T01:14:54;100558.19;;;-1.01;100.00
24762;BME280;12865;51.934;10.330;2023-02-28T01:17:39;100549.34;;;-0.97;100.00
24762;BME280;12865;51.934;10.330;2023-02-28T01:20:25;100546.84;;;-1.00;100.00
24762;BME280;12865;51.934;10.330;2023-02-28T01:23:10;100552.94;;;-1.01;100.00
24762;BME280;12865;51.934;10.330;2023-02-28T01:25:56;100552.94;;;-1.01;100.00
24762;BME280;12865;51.934;10.330;2023-02-28T01:28:42;100558.03;;;-0.95;100.00
24762;BME280;12865;51.934;10.330;2023-02-28T01:31:28;100555.41;;;-0.93;100.00
24762;BME280;12865;51.934;10.330;2023-02-28T01:34:13;100554.41;;;-0.89;100.00
24762;BME280;12865;51.934;10.330;2023-02-28T01:36:59;100554.34;;;-0.86;100.00
24762;BME280;12865;51.934;10.330;2023-02-28T01:39:45;100556.13;;;-0.87;100.00
24762;BME280;12865;51.934;10.330;2023-02-28T01:42:30;100550.69;;;-0.79;100.00
24762;BME280;12865;51.934;10.330;2023-02-28T01:45:26;100548.13;;;-0.81;100.00
24762;BME280;12865;51.934;10.330;2023-02-28T01:48:12;100551.63;;;-0.82;100.00
24762;BME280;12865;51.934;10.330;2023-02-28T01:51:03;100533.31;;;-0.83;99.75
24762;BME280;12865;51.934;10.330;2023-02-28T01:54:01;100543.78;;;-0.82;100.00
24762;BME280;12865;51.934;10.330;2023-02-28T01:57:01;100542.84;;;-0.79;100.00
24762;BME280;12865;51.934;10.330;2023-02-28T01:59:55;100540.19;;;-0.77;100.00
24762;BME280;12865;51.934;10.330;2023-02-28T02:02:47;100531.41;;;-0.76;100.00
24762;BME280;12865;51.934;10.330;2023-02-28T02:05:37;100530.56;;;-0.77;100.00
24762;BME280;12865;51.934;10.330;2023-02-28T02:08:25;100534.03;;;-0.76;100.00
24762;BME280;12865;51.934;10.330;2023-02-28T02:11:13;100536.63;;;-0.75;100.00
24762;BME280;12865;51.934;10.330;2023-02-28T02:14:26;100530.50;;;-0.74;100.00
24762;BME280;12865;51.934;10.330;2023-02-28T02:17:42;100534.72;;;-0.68;100.00
24762;BME280;12865;51.934;10.330;2023-02-28T02:23:58;100539.09;;;-0.69;100.00
24762;BME280;12865;51.934;10.330;2023-02-28T02:41:54;100526.25;;;-0.78;99.65
24762;BME280;12865;51.934;10.330;2023-02-28T02:44:45;100530.72;;;-0.83;100.00
24762;BME280;12865;51.934;10.330;2023-02-28T02:47:35;100530.78;;;-0.85;100.00
24762;BME280;12865;51.934;10.330;2023-02-28T02:50:25;100531.66;;;-0.86;100.00
24762;BME280;12865;51.934;10.330;2023-02-28T02:53:17;100545.50;;;-0.81;100.00
24762;BME280;12865;51.934;10.330;2023-02-28T02:56:06;100535.03;;;-0.81;100.00
24762;BME280;12865;51.934;10.330;2023-02-28T02:58:55;100532.41;;;-0.81;100.00
24762;BME280;12865;51.934;10.330;2023-02-28T03:01:42;100533.31;;;-0.82;100.00
24762;BME280;12865;51.934;10.330;2023-02-28T03:04:32;100533.31;;;-0.83;100.00
24762;BME280;12865;51.934;10.330;2023-02-28T03:07:18;100536.84;;;-0.84;100.00
24762;BME280;12865;51.934;10.330;2023-02-28T03:16:53;100532.53;;;-0.85;100.00
24762;BME280;12865;51.934;10.330;2023-02-28T03:20:00;100535.16;;;-0.85;100.00
24762;BME280;12865;51.934;10.330;2023-02-28T03:23:21;100542.22;;;-0.90;99.98
24762;BME280;12865;51.934;10.330;2023-02-28T03:26:19;100538.09;;;-0.99;99.43
24762;BME280;12865;51.934;10.330;2023-02-28T03:29:43;100536.34;;;-0.98;99.78
24762;BME280;12865;51.934;10.330;2023-02-28T03:35:19;100542.34;;;-0.95;99.90
24762;BME280;12865;51.934;10.330;2023-02-28T03:38:49;100544.13;;;-0.97;100.00
24762;BME280;12865;51.934;10.330;2023-02-28T03:41:37;100545.94;;;-0.99;100.00
24762;BME280;12865;51.934;10.330;2023-02-28T03:44:29;100543.31;;;-0.99;99.86
24762;BME280;12865;51.934;10.330;2023-02-28T03:47:21;100542.53;;;-1.04;100.00
24762;BME280;12865;51.934;10.330;2023-02-28T03:50:21;100533.88;;;-1.06;100.00
24762;BME280;12865;51.934;10.330;2023-02-28T03:53:11;100546.09;;;-1.06;100.00
24762;BME280;12865;51.934;10.330;2023-02-28T03:56:08;100540.00;;;-1.07;100.00
24762;BME280;12865;51.934;10.330;2023-02-28T03:59:02;100544.38;;;-1.07;100.00
24762;BME280;12865;51.934;10.330;2023-02-28T04:01:51;100534.84;;;-1.10;100.00
24762;BME280;12865;51.934;10.330;2023-02-28T04:04:37;100539.16;;;-1.07;100.00
24762;BME280;12865;51.934;10.330;2023-02-28T04:07:22;100536.63;;;-1.12;100.00
24762;BME280;12865;51.934;10.330;2023-02-28T04:10:09;100543.69;;;-1.15;99.11
24762;BME280;12865;51.934;10.330;2023-02-28T04:12:54;100542.69;;;-1.10;98.41
24762;BME280;12865;51.934;10.330;2023-02-28T04:15:40;100549.91;;;-1.20;99.22
24762;BME280;12865;51.934;10.330;2023-02-28T04:18:26;100553.44;;;-1.22;99.89
24762;BME280;12865;51.934;10.330;2023-02-28T04:21:12;100548.13;;;-1.19;99.55
24762;BME280;12865;51.934;10.330;2023-02-28T04:23:58;100550.88;;;-1.25;100.00
24762;BME280;12865;51.934;10.330;2023-02-28T04:26:48;100546.59;;;-1.28;100.00
24762;BME280;12865;51.934;10.330;2023-02-28T04:29:34;100556.22;;;-1.30;100.00
24762;BME280;12865;51.934;10.330;2023-02-28T04:32:20;100558.00;;;-1.32;100.00
24762;BME280;12865;51.934;10.330;2023-02-28T04:35:06;100552.88;;;-1.36;100.00
24762;BME280;12865;51.934;10.330;2023-02-28T04:37:51;100547.63;;;-1.36;100.00
24762;BME280;12865;51.934;10.330;2023-02-28T04:40:37;100552.13;;;-1.41;100.00
24762;BME280;12865;51.934;10.330;2023-02-28T04:43:23;100556.47;;;-1.42;100.00
24762;BME280;12865;51.934;10.330;2023-02-28T04:46:09;100553.03;;;-1.44;100.00
24762;BME280;12865;51.934;10.330;2023-02-28T04:48:55;100542.63;;;-1.47;100.00
24762;BME280;12865;51.934;10.330;2023-02-28T04:51:41;100550.41;;;-1.44;100.00
24762;BME280;12865;51.934;10.330;2023-02-28T04:54:27;100544.28;;;-1.43;100.00
24762;BME280;12865;51.934;10.330;2023-02-28T04:57:13;100556.56;;;-1.46;100.00
24762;BME280;12865;51.934;10.330;2023-02-28T04:59:59;100544.34;;;-1.46;100.00
24762;BME280;12865;51.934;10.330;2023-02-28T05:02:45;100541.50;;;-1.35;100.00
24762;BME280;12865;51.934;10.330;2023-02-28T05:05:30;100534.69;;;-1.42;100.00
24762;BME280;12865;51.934;10.330;2023-02-28T05:08:16;100540.94;;;-1.49;100.00
24762;BME280;12865;51.934;10.330;2023-02-28T05:11:05;100544.50;;;-1.53;100.00
24762;BME280;12865;51.934;10.330;2023-02-28T05:13:51;100546.88;;;-1.41;100.00
24762;BME280;12865;51.934;10.330;2023-02-28T05:16:37;100550.66;;;-1.54;100.00
24762;BME280;12865;51.934;10.330;2023-02-28T05:19:23;100544.56;;;-1.55;100.00
24762;BME280;12865;51.934;10.330;2023-02-28T05:22:13;100548.94;;;-1.57;100.00
24762;BME280;12865;51.934;10.330;2023-02-28T05:25:00;100544.59;;;-1.56;100.00
24762;BME280;12865;51.934;10.330;2023-02-28T05:27:46;100547.19;;;-1.56;100.00
24762;BME280;12865;51.934;10.330;2023-02-28T05:30:32;100548.97;;;-1.59;100.00
24762;BME280;12865;51.934;10.330;2023-02-28T05:33:18;100546.38;;;-1.60;100.00
24762;BME280;12865;51.934;10.330;2023-02-28T05:36:04;100554.19;;;-1.59;100.00
24762;BME280;12865;51.934;10.330;2023-02-28T05:38:50;100551.59;;;-1.59;100.00
24762;BME280;12865;51.934;10.330;2023-02-28T05:41:36;100562.88;;;-1.56;100.00
24762;BME280;12865;51.934;10.330;2023-02-28T05:44:22;100569.03;;;-1.59;100.00
24762;BME280;12865;51.934;10.330;2023-02-28T05:47:07;100558.59;;;-1.61;100.00
24762;BME280;12865;51.934;10.330;2023-02-28T05:49:53;100558.56;;;-1.59;100.00
24762;BME280;12865;51.934;10.330;2023-02-28T05:52:39;100565.53;;;-1.58;100.00
24762;BME280;12865;51.934;10.330;2023-02-28T05:55:24;100562.81;;;-1.53;100.00
24762;BME280;12865;51.934;10.330;2023-02-28T05:58:10;100565.41;;;-1.53;100.00
24762;BME280;12865;51.934;10.330;2023-02-28T06:00:57;100566.34;;;-1.54;100.00
24762;BME280;12865;51.934;10.330;2023-02-28T06:03:43;100565.53;;;-1.58;100.00
24762;BME280;12865;51.934;10.330;2023-02-28T06:06:29;100570.75;;;-1.58;100.00
24762;BME280;12865;51.934;10.330;2023-02-28T06:09:19;100564.59;;;-1.55;100.00
24762;BME280;12865;51.934;10.330;2023-02-28T06:12:06;100572.41;;;-1.54;100.00
24762;BME280;12865;51.934;10.330;2023-02-28T06:14:52;100574.06;;;-1.48;100.00
24762;BME280;12865;51.934;10.330;2023-02-28T06:17:38;100575.88;;;-1.53;100.00
24762;BME280;12865;51.934;10.330;2023-02-28T06:20:25;100577.59;;;-1.51;100.00
24762;BME280;12865;51.934;10.330;2023-02-28T06:23:14;100574.09;;;-1.51;100.00
24762;BME280;12865;51.934;10.330;2023-02-28T06:26:00;100579.28;;;-1.48;100.00
24762;BME280;12865;51.934;10.330;2023-02-28T06:28:46;100581.91;;;-1.48;100.00
24762;BME280;12865;51.934;10.330;2023-02-28T06:31:31;100574.81;;;-1.43;100.00
24762;BME280;12865;51.934;10.330;2023-02-28T06:34:17;100584.47;;;-1.47;100.00
24762;BME280;12865;51.934;10.330;2023-02-28T06:37:03;100584.44;;;-1.45;100.00
24762;BME280;12865;51.934;10.330;2023-02-28T06:39:48;100582.66;;;-1.43;100.00
24762;BME280;12865;51.934;10.330;2023-02-28T06:42:34;100585.28;;;-1.43;100.00
24762;BME280;12865;51.934;10.330;2023-02-28T06:45:20;100594.03;;;-1.46;100.00
24762;BME280;12865;51.934;10.330;2023-02-28T06:48:06;100590.56;;;-1.46;100.00
24762;BME280;12865;51.934;10.330;2023-02-28T06:50:51;100593.97;;;-1.43;100.00
24762;BME280;12865;51.934;10.330;2023-02-28T06:53:37;100603.53;;;-1.40;100.00
24762;BME280;12865;51.934;10.330;2023-02-28T06:56:23;100600.78;;;-1.34;100.00
24762;BME280;12865;51.934;10.330;2023-02-28T06:59:09;100597.94;;;-1.24;100.00
24762;BME280;12865;51.934;10.330;2023-02-28T07:01:55;100604.88;;;-1.23;100.00
24762;BME280;12865;51.934;10.330;2023-02-28T07:04:41;100607.63;;;-1.29;100.00
24762;BME280;12865;51.934;10.330;2023-02-28T07:07:30;100615.38;;;-1.24;100.00
24762;BME280;12865;51.934;10.330;2023-02-28T07:10:15;100607.66;;;-1.30;100.00
24762;BME280;12865;51.934;10.330;2023-02-28T07:13:03;100614.59;;;-1.28;100.00
24762;BME280;12865;51.934;10.330;2023-02-28T07:16:04;100616.28;;;-1.25;100.00
24762;BME280;12865;51.934;10.330;2023-02-28T07:18:52;100623.09;;;-1.18;100.00
24762;BME280;12865;51.934;10.330;2023-02-28T07:21:38;100616.72;;;-1.05;100.00
24762;BME280;12865;51.934;10.330;2023-02-28T07:24:24;100616.72;;;-1.05;100.00
24762;BME280;12865;51.934;10.330;2023-02-28T07:27:14;100622.59;;;-0.94;100.00
24762;BME280;12865;51.934;10.330;2023-02-28T07:30:09;100614.44;;;-0.80;100.00
24762;BME280;12865;51.934;10.330;2023-02-28T07:32:55;100614.13;;;-0.66;100.00
24762;BME280;12865;51.934;10.330;2023-02-28T07:35:43;100623.34;;;-0.50;100.00
24762;BME280;12865;51.934;10.330;2023-02-28T07:38:29;100619.28;;;-0.28;99.59
24762;BME280;12865;51.934;10.330;2023-02-28T07:41:16;100617.78;;;-0.03;97.86
24762;BME280;12865;51.934;10.330;2023-02-28T07:44:01;100620.41;;;0.30;96.51
24762;BME280;12865;51.934;10.330;2023-02-28T07:46:48;100621.56;;;0.52;94.73
24762;BME280;12865;51.934;10.330;2023-02-28T07:49:37;100620.19;;;0.70;92.38
24762;BME280;12865;51.934;10.330;2023-02-28T07:52:23;100615.88;;;0.67;90.86
24762;BME280;12865;51.934;10.330;2023-02-28T07:55:09;100618.75;;;0.58;89.20
24762;BME280;12865;51.934;10.330;2023-02-28T07:57:57;100619.75;;;0.54;88.66
24762;BME280;12865;51.934;10.330;2023-02-28T08:00:43;100620.31;;;0.65;86.46
24762;BME280;12865;51.934;10.330;2023-02-28T08:03:28;100625.91;;;0.84;86.14
24762;BME280;12865;51.934;10.330;2023-02-28T08:06:17;100617.22;;;1.11;86.19
24762;BME280;12865;51.934;10.330;2023-02-28T08:09:03;100622.81;;;1.29;82.77
24762;BME280;12865;51.934;10.330;2023-02-28T08:11:49;100621.44;;;1.45;82.41
24762;BME280;12865;51.934;10.330;2023-02-28T08:14:35;100617.53;;;1.56;80.31
24762;BME280;12865;51.934;10.330;2023-02-28T08:17:21;100612.41;;;1.53;80.34
24762;BME280;12865;51.934;10.330;2023-02-28T08:20:07;100613.06;;;1.60;82.39
24762;BME280;12865;51.934;10.330;2023-02-28T08:22:53;100620.38;;;1.77;82.52
24762;BME280;12865;51.934;10.330;2023-02-28T08:25:39;100615.50;;;2.17;81.42
24762;BME280;12865;51.934;10.330;2023-02-28T08:28:25;100613.75;;;2.43;79.16
24762;BME280;12865;51.934;10.330;2023-02-28T08:31:13;100622.94;;;2.79;75.65
24762;BME280;12865;51.934;10.330;2023-02-28T08:33:59;100621.28;;;2.76;75.55
24762;BME280;12865;51.934;10.330;2023-02-28T08:36:45;100621.28;;;3.00;73.09
24762;BME280;12865;51.934;10.330;2023-02-28T08:39:34;100622.84;;;3.05;74.16
24762;BME280;12865;51.934;10.330;2023-02-28T08:42:20;100616.59;;;3.30;72.79
24762;BME280;12865;51.934;10.330;2023-02-28T08:45:06;100621.13;;;3.49;72.92
24762;BME280;12865;51.934;10.330;2023-02-28T08:47:54;100617.47;;;3.74;69.34
24762;BME280;12865;51.934;10.330;2023-02-28T08:50:40;100630.50;;;3.57;70.57
24762;BME280;12865;51.934;10.330;2023-02-28T08:53:26;100621.34;;;3.22;71.76
24762;BME280;12865;51.934;10.330;2023-02-28T08:56:13;100623.88;;;3.23;72.52
24762;BME280;12865;51.934;10.330;2023-02-28T08:58:59;100626.31;;;3.29;72.94
24762;BME280;12865;51.934;10.330;2023-02-28T09:01:44;100637.09;;;3.45;72.68
24762;BME280;12865;51.934;10.330;2023-02-28T09:04:30;100636.84;;;3.73;71.89
24762;BME280;12865;51.934;10.330;2023-02-28T09:07:16;100634.91;;;3.78;68.76
24762;BME280;12865;51.934;10.330;2023-02-28T09:10:02;100629.81;;;3.73;67.69
24762;BME280;12865;51.934;10.330;2023-02-28T09:12:47;100628.94;;;3.73;68.62
24762;BME280;12865;51.934;10.330;2023-02-28T09:15:33;100628.81;;;3.54;70.18
24762;BME280;12865;51.934;10.330;2023-02-28T09:18:19;100636.63;;;3.57;69.96
24762;BME280;12865;51.934;10.330;2023-02-28T09:21:08;100623.88;;;3.68;69.66
24762;BME280;12865;51.934;10.330;2023-02-28T09:23:54;100630.69;;;3.94;69.08
24762;BME280;12865;51.934;10.330;2023-02-28T09:26:40;100627.41;;;3.67;67.83
24762;BME280;12865;51.934;10.330;2023-02-28T09:29:26;100635.78;;;3.57;70.59
24762;BME280;12865;51.934;10.330;2023-02-28T09:32:12;100637.72;;;3.73;70.75
24762;BME280;12865;51.934;10.330;2023-02-28T09:34:57;100642.69;;;3.59;69.77
24762;BME280;12865;51.934;10.330;2023-02-28T09:37:44;100623.81;;;3.70;68.51
24762;BME280;12865;51.934;10.330;2023-02-28T09:40:30;100633.00;;;3.81;70.47
24762;BME280;12865;51.934;10.330;2023-02-28T09:43:17;100630.84;;;3.91;67.50
24762;BME280;12865;51.934;10.330;2023-02-28T09:46:18;100633.28;;;3.95;66.77
24762;BME280;12865;51.934;10.330;2023-02-28T09:49:11;100635.03;;;4.37;64.84
24762;BME280;12865;51.934;10.330;2023-02-28T09:52:03;100633.16;;;3.99;60.32
24762;BME280;12865;51.934;10.330;2023-02-28T09:54:49;100630.03;;;4.31;59.62
24762;BME280;12865;51.934;10.330;2023-02-28T09:57:37;100637.97;;;4.70;60.92
24762;BME280;12865;51.934;10.330;2023-02-28T10:00:39;100636.88;;;4.35;58.01
24762;BME280;12865;51.934;10.330;2023-02-28T10:03:30;100636.19;;;3.89;59.01
24762;BME280;12865;51.934;10.330;2023-02-28T10:06:20;100628.56;;;4.24;54.49
24762;BME280;12865;51.934;10.330;2023-02-28T10:09:30;100638.59;;;4.56;54.45
24762;BME280;12865;51.934;10.330;2023-02-28T10:12:17;100639.00;;;4.86;48.94
24762;BME280;12865;51.934;10.330;2023-02-28T10:15:05;100635.19;;;5.12;49.91
24762;BME280;12865;51.934;10.330;2023-02-28T10:18:00;100645.72;;;4.74;48.54
24762;BME280;12865;51.934;10.330;2023-02-28T10:20:48;100639.03;;;5.05;48.90
24762;BME280;12865;51.934;10.330;2023-02-28T10:23:35;100634.03;;;4.99;47.93
24762;BME280;12865;51.934;10.330;2023-02-28T10:26:22;100642.47;;;5.07;48.34
24762;BME280;12865;51.934;10.330;2023-02-28T10:29:10;100639.63;;;5.11;47.41
24762;BME280;12865;51.934;10.330;2023-02-28T10:31:56;100642.06;;;5.16;47.90
24762;BME280;12865;51.934;10.330;2023-02-28T10:34:42;100643.63;;;5.01;47.46
24762;BME280;12865;51.934;10.330;2023-02-28T10:37:28;100632.69;;;5.09;48.37
24762;BME280;12865;51.934;10.330;2023-02-28T10:46:02;100629.88;;;5.12;47.49
24762;BME280;12865;51.934;10.330;2023-02-28T10:49:00;100635.19;;;5.31;47.38
24762;BME280;12865;51.934;10.330;2023-02-28T10:51:52;100639.59;;;5.49;50.24
24762;BME280;12865;51.934;10.330;2023-02-28T10:54:39;100632.09;;;5.59;48.22
24762;BME280;12865;51.934;10.330;2023-02-28T10:57:26;100631.38;;;5.74;46.94
24762;BME280;12865;51.934;10.330;2023-02-28T11:00:23;100626.22;;;5.71;47.90
24762;BME280;12865;51.934;10.330;2023-02-28T11:03:34;100632.16;;;5.57;47.89
24762;BME280;12865;51.934;10.330;2023-02-28T11:06:23;100632.13;;;5.76;47.85
24762;BME280;12865;51.934;10.330;2023-02-28T11:09:28;100630.28;;;5.78;46.22
24762;BME280;12865;51.934;10.330;2023-02-28T11:12:36;100629.16;;;5.65;47.26
24762;BME280;12865;51.934;10.330;2023-02-28T11:15:29;100627.84;;;5.37;49.49
24762;BME280;12865;51.934;10.330;2023-02-28T11:18:27;100623.63;;;5.69;48.45
24762;BME280;12865;51.934;10.330;2023-02-28T11:21:33;100613.66;;;5.57;47.60
24762;BME280;12865;51.934;10.330;2023-02-28T11:24:29;100619.31;;;5.85;49.69
24762;BME280;12865;51.934;10.330;2023-02-28T11:27:42;100624.09;;;5.41;48.49
24762;BME280;12865;51.934;10.330;2023-02-28T11:30:41;100615.94;;;5.82;48.51
24762;BME280;12865;51.934;10.330;2023-02-28T11:33:47;100610.25;;;5.72;47.02
24762;BME280;12865;51.934;10.330;2023-02-28T11:36:35;100610.88;;;5.77;48.21
24762;BME280;12865;51.934;10.330;2023-02-28T11:39:21;100611.75;;;5.23;48.71
24762;BME280;12865;51.934;10.330;2023-02-28T11:45:54;100598.88;;;5.53;46.78
24762;BME280;12865;51.934;10.330;2023-02-28T11:51:35;100589.28;;;5.50;47.51
24762;BME280;12865;51.934;10.330;2023-02-28T11:54:43;100592.41;;;5.59;47.92
24762;BME280;12865;51.934;10.330;2023-02-28T12:00:54;100590.84;;;5.54;48.11
24762;BME280;12865;51.934;10.330;2023-02-28T12:03:48;100582.50;;;5.45;47.99
24762;BME280;12865;51.934;10.330;2023-02-28T12:06:46;100572.22;;;5.39;50.21
24762;BME280;12865;51.934;10.330;2023-02-28T12:10:00;100579.19;;;5.76;49.34
24762;BME280;12865;51.934;10.330;2023-02-28T12:21:58;100569.09;;;5.84;49.67
24762;BME280;12865;51.934;10.330;2023-02-28T12:27:59;100564.69;;;5.48;50.21
24762;BME280;12865;51.934;10.330;2023-02-28T12:30:59;100569.72;;;5.36;49.35
24762;BME280;12865;51.934;10.330;2023-02-28T12:33:56;100563.97;;;5.81;49.07
24762;BME280;12865;51.934;10.330;2023-02-28T12:36:45;100556.72;;;5.84;49.51
24762;BME280;12865;51.934;10.330;2023-02-28T12:39:36;100564.94;;;6.14;48.88
24762;BME280;12865;51.934;10.330;2023-02-28T12:44:54;100565.09;;;6.28;47.31
24762;BME280;12865;51.934;10.330;2023-02-28T12:47:44;100561.69;;;6.09;47.54
24762;BME280;12865;51.934;10.330;2023-02-28T12:50:32;100563.44;;;5.74;48.65
24762;BME280;12865;51.934;10.330;2023-02-28T12:53:38;100559.03;;;5.92;49.16
24762;BME280;12865;51.934;10.330;2023-02-28T12:56:48;100570.72;;;5.88;48.35
24762;BME280;12865;51.934;10.330;2023-02-28T12:59:52;100560.97;;;5.88;48.67
24762;BME280;12865;51.934;10.330;2023-02-28T13:09:02;100551.22;;;5.89;49.32
24762;BME280;12865;51.934;10.330;2023-02-28T13:11:51;100543.69;;;5.99;48.83
24762;BME280;12865;51.934;10.330;2023-02-28T13:14:38;100543.38;;;5.87;51.43
24762;BME280;12865;51.934;10.330;2023-02-28T13:17:24;100523.53;;;5.43;49.88
24762;BME280;12865;51.934;10.330;2023-02-28T13:20:23;100534.41;;;5.73;49.45
24762;BME280;12865;51.934;10.330;2023-02-28T13:23:40;100530.72;;;5.75;49.21
24762;BME280;12865;51.934;10.330;2023-02-28T13:29:29;100526.16;;;5.96;48.97
24762;BME280;12865;51.934;10.330;2023-02-28T13:35:14;100517.03;;;5.67;48.15
24762;BME280;12865;51.934;10.330;2023-02-28T13:38:16;100518.03;;;5.65;50.28
24762;BME280;12865;51.934;10.330;2023-02-28T13:44:25;100501.81;;;5.36;48.24
24762;BME280;12865;51.934;10.330;2023-02-28T13:47:21;100496.59;;;5.18;49.90
24762;BME280;12865;51.934;10.330;2023-02-28T13:56:27;100501.00;;;5.70;50.24
24762;BME280;12865;51.934;10.330;2023-02-28T13:59:31;100500.38;;;5.65;50.48
24762;BME280;12865;51.934;10.330;2023-02-28T14:05:22;100494.63;;;5.74;50.29
24762;BME280;12865;51.934;10.330;2023-02-28T14:08:17;100493.22;;;5.67;47.83
24762;BME280;12865;51.934;10.330;2023-02-28T14:11:15;100496.88;;;5.65;48.56
24762;BME280;12865;51.934;10.330;2023-02-28T14:17:17;100501.16;;;5.67;50.43
24762;BME280;12865;51.934;10.330;2023-02-28T14:20:03;100493.38;;;5.64;51.06
24762;BME280;12865;51.934;10.330;2023-02-28T14:26:33;100497.50;;;5.52;51.62
24762;BME280;12865;51.934;10.330;2023-02-28T14:29:52;100507.53;;;5.63;53.20
24762;BME280;12865;51.934;10.330;2023-02-28T14:32:51;100515.56;;;5.79;49.90
24762;BME280;12865;51.934;10.330;2023-02-28T14:35:50;100513.69;;;5.64;49.23
24762;BME280;12865;51.934;10.330;2023-02-28T14:38:43;100506.38;;;5.51;50.05
24762;BME280;12865;51.934;10.330;2023-02-28T14:41:37;100517.72;;;5.53;50.95
24762;BME280;12865;51.934;10.330;2023-02-28T14:47:14;100504.53;;;5.35;50.36
24762;BME280;12865;51.934;10.330;2023-02-28T14:50:03;100510.75;;;5.17;51.19
24762;BME280;12865;51.934;10.330;2023-02-28T14:52:53;100508.47;;;5.09;51.04
24762;BME280;12865;51.934;10.330;2023-02-28T14:55:44;100501.34;;;4.73;52.88
24762;BME280;12865;51.934;10.330;2023-02-28T14:58:32;100501.34;;;4.73;54.00
24762;BME280;12865;51.934;10.330;2023-02-28T15:01:20;100493.41;;;4.92;53.15
24762;BME280;12865;51.934;10.330;2023-02-28T15:04:20;100488.47;;;5.03;53.82
24762;BME280;12865;51.934;10.330;2023-02-28T15:07:14;100491.94;;;5.23;52.27
24762;BME280;12865;51.934;10.330;2023-02-28T15:10:16;100494.19;;;5.30;51.05
24762;BME280;12865;51.934;10.330;2023-02-28T15:13:09;100488.00;;;5.12;51.22
24762;BME280;12865;51.934;10.330;2023-02-28T15:15:59;100490.16;;;5.23;51.47
24762;BME280;12865;51.934;10.330;2023-02-28T15:21:43;100495.84;;;4.97;51.56
24762;BME280;12865;51.934;10.330;2023-02-28T15:24:37;100485.69;;;4.88;51.71
24762;BME280;12865;51.934;10.330;2023-02-28T15:27:29;100488.34;;;4.88;52.06
24762;BME280;12865;51.934;10.330;2023-02-28T15:30:25;100481.03;;;4.93;52.73
24762;BME280;12865;51.934;10.330;2023-02-28T15:33:20;100492.03;;;4.84;54.56
24762;BME280;12865;51.934;10.330;2023-02-28T15:36:13;100483.75;;;4.91;55.10
24762;BME280;12865;51.934;10.330;2023-02-28T15:39:00;100486.31;;;4.93;52.39
24762;BME280;12865;51.934;10.330;2023-02-28T15:41:45;100480.44;;;5.05;52.63
24762;BME280;12865;51.934;10.330;2023-02-28T15:44:33;100482.13;;;4.89;53.89
24762;BME280;12865;51.934;10.330;2023-02-28T15:47:22;100483.84;;;4.90;53.93
24762;BME280;12865;51.934;10.330;2023-02-28T15:50:12;100483.13;;;4.86;52.77
24762;BME280;12865;51.934;10.330;2023-02-28T15:53:00;100473.78;;;4.79;52.72
24762;BME280;12865;51.934;10.330;2023-02-28T15:55:53;100479.19;;;4.57;53.50
24762;BME280;12865;51.934;10.330;2023-02-28T15:58:41;100480.47;;;4.49;54.18
24762;BME280;12865;51.934;10.330;2023-02-28T16:01:29;100477.31;;;4.22;55.62
24762;BME280;12865;51.934;10.330;2023-02-28T16:04:18;100479.47;;;4.32;55.49
24762;BME280;12865;51.934;10.330;2023-02-28T16:07:11;100476.44;;;4.21;55.07
24762;BME280;12865;51.934;10.330;2023-02-28T16:09:57;100481.19;;;4.33;55.45
24762;BME280;12865;51.934;10.330;2023-02-28T16:12:43;100478.94;;;4.06;55.58